createdAt,value
2023-04-16T00:02:13.340Z,11.60
2023-04-16T00:04:41.761Z,11.50
2023-04-16T00:07:08.770Z,11.60
2023-04-16T00:09:35.607Z,11.50
2023-04-16T00:12:02.378Z,11.50
2023-04-16T00:14:29.768Z,11.50
2023-04-16T00:16:56.472Z,11.50
2023-04-16T00:19:23.108Z,11.50
2023-04-16T00:21:49.751Z,11.50
2023-04-16T00:24:16.540Z,11.50
2023-04-16T00:26:45.087Z,11.50
2023-04-16T00:29:12.078Z,11.50
2023-04-16T00:31:38.793Z,11.40
2023-04-16T00:34:05.631Z,11.50
2023-04-16T00:36:32.361Z,11.50
2023-04-16T00:38:59.000Z,11.50
2023-04-16T00:41:26.245Z,11.50
2023-04-16T00:43:53.485Z,11.50
2023-04-16T00:46:22.339Z,11.50
2023-04-16T00:48:49.524Z,11.50
2023-04-16T00:51:18.494Z,11.50
2023-04-16T00:53:47.251Z,12.90
2023-04-16T00:56:14.152Z,11.40
2023-04-16T00:58:41.268Z,11.40
2023-04-16T01:01:08.000Z,11.40
2023-04-16T01:03:39.863Z,11.40
2023-04-16T01:06:07.500Z,11.40
2023-04-16T01:08:34.312Z,11.40
2023-04-16T01:11:01.221Z,11.40
2023-04-16T01:13:27.969Z,11.40
2023-04-16T01:15:54.706Z,11.40
2023-04-16T01:18:22.225Z,11.40
2023-04-16T01:20:50.165Z,11.40
2023-04-16T01:23:18.582Z,11.40
2023-04-16T01:25:47.771Z,11.40
2023-04-16T01:28:14.884Z,11.40
2023-04-16T01:30:41.662Z,11.40
2023-04-16T01:33:12.787Z,11.00
2023-04-16T01:35:41.133Z,11.40
2023-04-16T01:38:09.090Z,11.40
2023-04-16T01:40:36.583Z,11.40
2023-04-16T01:43:03.831Z,11.40
2023-04-16T01:45:36.735Z,11.40
2023-04-16T01:48:04.357Z,11.40
2023-04-16T01:50:32.276Z,11.30
2023-04-16T01:52:58.971Z,11.30
2023-04-16T01:55:25.747Z,11.30
2023-04-16T01:57:52.383Z,11.30
2023-04-16T02:00:19.048Z,11.30
2023-04-16T02:02:46.560Z,11.30
2023-04-16T02:05:13.469Z,11.30
2023-04-16T02:07:40.160Z,11.30
2023-04-16T02:10:08.140Z,11.30
2023-04-16T02:12:34.771Z,11.30
2023-04-16T02:15:01.566Z,11.30
2023-04-16T02:17:28.306Z,11.30
2023-04-16T02:19:55.088Z,11.30
2023-04-16T02:22:21.767Z,11.30
2023-04-16T02:24:49.702Z,11.30
2023-04-16T02:27:16.529Z,13.10
2023-04-16T02:29:43.378Z,11.30
2023-04-16T02:32:10.061Z,11.30
2023-04-16T02:34:36.823Z,11.30
2023-04-16T02:37:03.503Z,11.20
2023-04-16T02:39:30.197Z,11.30
2023-04-16T02:41:57.862Z,11.20
2023-04-16T02:44:24.564Z,11.30
2023-04-16T02:46:51.222Z,11.30
2023-04-16T02:49:17.874Z,11.30
2023-04-16T02:51:44.526Z,11.30
2023-04-16T02:54:11.631Z,11.30
2023-04-16T02:56:38.284Z,11.20
2023-04-16T02:59:05.210Z,11.30
2023-04-16T03:01:34.380Z,11.30
2023-04-16T03:04:01.205Z,11.30
2023-04-16T03:06:27.880Z,11.20
2023-04-16T03:08:54.951Z,11.20
2023-04-16T03:11:21.734Z,9.00
2023-04-16T03:13:48.731Z,11.20
2023-04-16T03:16:15.587Z,11.20
2023-04-16T03:18:42.399Z,11.20
2023-04-16T03:21:09.055Z,11.20
2023-04-16T03:23:36.360Z,11.20
2023-04-16T03:26:03.147Z,11.20
2023-04-16T03:28:29.842Z,11.20
2023-04-16T03:30:56.542Z,11.20
2023-04-16T03:33:23.489Z,11.20
2023-04-16T03:35:57.490Z,11.20
2023-04-16T03:38:26.102Z,11.20
2023-04-16T03:40:52.797Z,11.20
2023-04-16T03:43:19.514Z,11.20
2023-04-16T03:45:46.657Z,11.20
2023-04-16T03:48:13.522Z,10.50
2023-04-16T03:50:40.427Z,11.20
2023-04-16T03:53:07.087Z,11.10
2023-04-16T03:55:33.769Z,11.10
2023-04-16T03:58:03.052Z,11.10
2023-04-16T04:00:30.608Z,11.10
2023-04-16T04:02:57.534Z,11.10
2023-04-16T04:05:24.303Z,11.20
2023-04-16T04:07:50.958Z,13.00
2023-04-16T04:10:17.633Z,11.10
2023-04-16T04:12:44.252Z,11.10
2023-04-16T04:15:11.938Z,11.10
2023-04-16T04:17:38.766Z,11.10
2023-04-16T04:20:06.096Z,11.10
2023-04-16T04:22:32.771Z,11.10
2023-04-16T04:24:59.446Z,11.10
2023-04-16T04:27:26.146Z,11.10
2023-04-16T04:29:53.211Z,11.10
2023-04-16T04:32:19.960Z,11.10
2023-04-16T04:34:46.604Z,11.10
2023-04-16T04:37:13.259Z,11.10
2023-04-16T04:39:39.922Z,11.10
2023-04-16T04:42:06.580Z,11.10
2023-04-16T04:44:33.231Z,11.10
2023-04-16T04:46:59.864Z,11.10
2023-04-16T04:49:26.529Z,11.10
2023-04-16T04:51:53.219Z,11.00
2023-04-16T04:54:20.046Z,11.00
2023-04-16T04:56:48.426Z,11.00
2023-04-16T04:59:15.465Z,11.00
2023-04-16T05:01:46.478Z,11.00
2023-04-16T05:04:13.351Z,11.00
2023-04-16T05:06:40.128Z,11.00
2023-04-16T05:09:11.666Z,11.00
2023-04-16T05:11:39.225Z,11.00
2023-04-16T05:14:05.906Z,10.90
2023-04-16T05:16:32.521Z,10.90
2023-04-16T05:18:59.217Z,10.90
2023-04-16T05:21:26.459Z,10.90
2023-04-16T05:23:53.485Z,10.90
2023-04-16T05:26:20.693Z,10.90
2023-04-16T05:28:47.355Z,10.90
2023-04-16T05:31:14.119Z,13.30
2023-04-16T05:33:40.885Z,10.90
2023-04-16T05:36:07.547Z,13.10
2023-04-16T05:38:34.230Z,10.90
2023-04-16T05:41:00.870Z,10.90
2023-04-16T05:43:27.483Z,10.80
2023-04-16T05:45:54.198Z,11.90
2023-04-16T05:48:20.845Z,10.80
2023-04-16T05:50:47.488Z,10.90
2023-04-16T05:53:14.272Z,10.80
2023-04-16T05:55:41.028Z,10.80
2023-04-16T05:58:07.700Z,10.80
2023-04-16T06:00:34.428Z,10.80
2023-04-16T06:03:01.195Z,10.80
2023-04-16T06:05:28.226Z,10.80
2023-04-16T06:07:55.917Z,10.80
2023-04-16T06:10:22.575Z,10.80
2023-04-16T06:12:49.289Z,10.80
2023-04-16T06:15:16.036Z,10.80
2023-04-16T06:17:42.691Z,10.80
2023-04-16T06:20:09.982Z,10.80
2023-04-16T06:22:36.649Z,10.80
2023-04-16T06:25:03.412Z,10.80
2023-04-16T06:27:31.365Z,10.80
2023-04-16T06:29:58.488Z,10.80
2023-04-16T06:32:25.465Z,10.80
2023-04-16T06:34:52.128Z,10.80
2023-04-16T06:37:18.733Z,10.80
2023-04-16T06:39:45.723Z,10.80
2023-04-16T06:42:12.365Z,10.80
2023-04-16T06:44:39.045Z,10.80
2023-04-16T06:47:05.733Z,10.80
2023-04-16T06:49:32.790Z,10.80
2023-04-16T06:51:59.418Z,10.80
2023-04-16T06:54:26.100Z,10.70
2023-04-16T06:56:52.762Z,10.70
2023-04-16T06:59:19.436Z,10.70
2023-04-16T07:01:46.138Z,10.70
2023-04-16T07:04:12.867Z,10.70
2023-04-16T07:06:39.594Z,10.70
2023-04-16T07:09:06.273Z,10.70
2023-04-16T07:11:32.964Z,10.70
2023-04-16T07:13:59.626Z,10.70
2023-04-16T07:16:26.464Z,10.70
2023-04-16T07:18:53.098Z,10.70
2023-04-16T07:21:19.853Z,10.70
2023-04-16T07:23:46.575Z,10.80
2023-04-16T07:26:13.260Z,10.80
2023-04-16T07:28:39.882Z,10.80
2023-04-16T07:31:06.548Z,10.80
2023-04-16T07:33:33.191Z,10.80
2023-04-16T07:35:59.833Z,10.80
2023-04-16T07:38:26.542Z,10.80
2023-04-16T07:40:53.208Z,10.80
2023-04-16T07:43:19.847Z,10.80
2023-04-16T07:45:46.486Z,10.80
2023-04-16T07:48:13.154Z,8.90
2023-04-16T07:50:39.802Z,10.80
2023-04-16T07:53:07.639Z,10.90
2023-04-16T07:55:34.320Z,10.80
2023-04-16T07:58:01.126Z,10.90
2023-04-16T08:00:27.795Z,10.90
2023-04-16T08:02:54.706Z,10.90
2023-04-16T08:05:21.636Z,10.90
2023-04-16T08:07:48.359Z,10.90
2023-04-16T08:10:15.013Z,10.90
2023-04-16T08:12:41.639Z,10.90
2023-04-16T08:15:08.728Z,10.90
2023-04-16T08:17:35.552Z,10.90
2023-04-16T08:20:02.250Z,10.90
2023-04-16T08:22:28.965Z,10.90
2023-04-16T08:24:55.719Z,10.90
2023-04-16T08:27:22.433Z,11.80
2023-04-16T08:29:49.090Z,10.90
2023-04-16T08:32:15.788Z,10.90
2023-04-16T08:34:42.505Z,10.90
2023-04-16T08:37:09.605Z,10.90
2023-04-16T08:39:36.390Z,11.00
2023-04-16T08:42:05.497Z,11.80
2023-04-16T08:44:35.132Z,11.10
2023-04-16T08:47:02.474Z,11.00
2023-04-16T08:49:29.746Z,11.00
2023-04-16T08:51:57.034Z,11.00
2023-04-16T08:54:57.080Z,11.00
2023-04-16T08:57:24.420Z,11.00
2023-04-16T08:59:52.087Z,11.00
2023-04-16T09:02:18.845Z,11.00
2023-04-16T09:04:45.660Z,11.00
2023-04-16T09:07:12.593Z,11.10
2023-04-16T09:09:40.122Z,11.00
2023-04-16T09:12:08.445Z,11.10
2023-04-16T09:14:36.332Z,11.10
2023-04-16T09:17:03.710Z,11.00
2023-04-16T09:19:30.628Z,11.10
2023-04-16T09:21:57.309Z,11.10
2023-04-16T09:24:24.712Z,9.00
2023-04-16T09:26:52.761Z,11.10
2023-04-16T09:29:39.481Z,11.10
2023-04-16T09:32:11.080Z,11.10
2023-04-16T09:34:57.574Z,11.10
2023-04-16T09:37:29.883Z,11.10
2023-04-16T09:39:57.668Z,11.20
2023-04-16T09:42:27.268Z,11.20
2023-04-16T09:44:54.284Z,11.20
2023-04-16T09:47:21.483Z,11.20
2023-04-16T09:49:48.508Z,11.20
2023-04-16T09:52:18.091Z,10.10
2023-04-16T09:54:49.222Z,11.20
2023-04-16T09:57:22.622Z,11.20
2023-04-16T10:00:01.655Z,11.20
2023-04-16T10:02:32.968Z,11.30
2023-04-16T10:05:03.138Z,11.30
2023-04-16T10:07:33.656Z,11.30
2023-04-16T10:10:00.336Z,11.30
2023-04-16T10:12:29.836Z,11.30
2023-04-16T10:14:56.488Z,11.30
2023-04-16T10:17:24.007Z,11.30
2023-04-16T10:19:51.505Z,11.30
2023-04-16T10:22:18.111Z,11.30
2023-04-16T10:24:46.098Z,11.30
2023-04-16T10:27:12.718Z,11.30
2023-04-16T10:29:39.457Z,11.30
2023-04-16T10:32:06.324Z,11.30
2023-04-16T10:34:33.110Z,11.40
2023-04-16T10:36:59.788Z,11.40
2023-04-16T10:39:28.981Z,11.40
2023-04-16T10:42:12.457Z,11.40
2023-04-16T10:44:43.443Z,11.40
2023-04-16T10:47:12.820Z,11.40
2023-04-16T10:49:39.909Z,11.40
2023-04-16T10:52:14.818Z,11.40
2023-04-16T10:54:41.713Z,11.40
2023-04-16T10:57:09.670Z,11.40
2023-04-16T10:59:37.866Z,11.50
2023-04-16T11:02:10.238Z,11.50
2023-04-16T11:04:38.637Z,11.50
2023-04-16T11:07:16.821Z,11.50
2023-04-16T11:10:06.577Z,11.50
2023-04-16T11:12:40.515Z,11.50
2023-04-16T11:15:15.315Z,11.50
2023-04-16T11:17:47.501Z,11.50
2023-04-16T11:20:27.986Z,11.60
2023-04-16T11:22:56.464Z,11.60
2023-04-16T11:25:23.951Z,11.60
2023-04-16T11:27:52.076Z,11.60
2023-04-16T11:30:28.204Z,13.60
2023-04-16T11:32:54.960Z,11.60
2023-04-16T11:35:22.028Z,11.60
2023-04-16T11:37:48.898Z,11.60
2023-04-16T11:40:16.056Z,11.60
2023-04-16T11:42:43.437Z,11.60
2023-04-16T11:45:12.108Z,11.60
2023-04-16T11:47:46.283Z,11.60
2023-04-16T11:50:31.135Z,11.60
2023-04-16T11:53:04.389Z,11.60
2023-04-16T11:55:31.246Z,11.60
2023-04-16T11:57:57.929Z,11.60
2023-04-16T12:00:25.086Z,11.80
2023-04-16T12:02:53.762Z,11.70
2023-04-16T12:05:35.288Z,11.60
2023-04-16T12:08:04.124Z,11.70
2023-04-16T12:10:32.088Z,11.70
2023-04-16T12:13:17.604Z,11.70
2023-04-16T12:16:07.743Z,11.70
2023-04-16T12:18:34.467Z,11.70
2023-04-16T12:21:05.663Z,11.70
2023-04-16T12:23:33.729Z,11.70
2023-04-16T12:26:10.256Z,11.70
2023-04-16T12:28:40.781Z,11.70
2023-04-16T12:31:07.496Z,11.80
2023-04-16T12:33:34.209Z,11.80
2023-04-16T12:36:02.357Z,11.80
2023-04-16T12:38:29.654Z,11.80
2023-04-16T12:40:57.572Z,11.80
2023-04-16T12:43:25.026Z,11.80
2023-04-16T12:45:51.793Z,11.80
2023-04-16T12:48:18.507Z,11.80
2023-04-16T12:50:45.222Z,11.80
2023-04-16T12:53:12.118Z,11.80
2023-04-16T12:55:39.032Z,11.80
2023-04-16T12:58:05.656Z,11.80
2023-04-16T13:00:32.745Z,13.00
2023-04-16T13:02:59.460Z,11.80
2023-04-16T13:05:26.593Z,11.80
2023-04-16T13:07:53.236Z,11.90
2023-04-16T13:10:21.553Z,11.90
2023-04-16T13:12:48.798Z,11.90
2023-04-16T13:15:15.796Z,11.90
2023-04-16T13:17:42.505Z,11.80
2023-04-16T13:20:09.983Z,11.90
2023-04-16T13:22:36.798Z,11.90
2023-04-16T13:25:03.542Z,11.90
2023-04-16T13:27:31.972Z,11.90
2023-04-16T13:29:58.658Z,11.90
2023-04-16T13:32:25.459Z,14.40
2023-04-16T13:34:52.149Z,11.90
2023-04-16T13:37:18.813Z,11.90
2023-04-16T13:39:45.831Z,11.90
2023-04-16T13:42:12.517Z,12.00
2023-04-16T13:44:39.165Z,11.90
2023-04-16T13:47:05.917Z,11.90
2023-04-16T13:49:35.777Z,11.90
2023-04-16T13:52:02.962Z,11.90
2023-04-16T13:54:29.621Z,11.90
2023-04-16T13:56:56.330Z,11.90
2023-04-16T13:59:22.996Z,12.00
2023-04-16T14:01:49.762Z,12.00
2023-04-16T14:04:16.586Z,12.00
2023-04-16T14:06:43.245Z,12.00
2023-04-16T14:09:10.909Z,11.90
2023-04-16T14:11:37.820Z,12.00
2023-04-16T14:14:04.636Z,12.00
2023-04-16T14:16:31.408Z,12.00
2023-04-16T14:18:58.124Z,12.00
2023-04-16T14:21:24.770Z,12.00
2023-04-16T14:23:51.472Z,12.00
2023-04-16T14:26:18.208Z,12.00
2023-04-16T14:28:44.938Z,12.00
2023-04-16T14:31:11.599Z,12.00
2023-04-16T14:33:38.282Z,12.00
2023-04-16T14:36:05.345Z,12.00
2023-04-16T14:38:32.197Z,12.00
2023-04-16T14:41:00.231Z,12.10
2023-04-16T14:43:27.220Z,12.00
2023-04-16T14:45:54.015Z,12.00
2023-04-16T14:48:21.998Z,12.00
2023-04-16T14:50:48.813Z,12.00
2023-04-16T14:53:15.478Z,12.00
2023-04-16T14:55:42.148Z,12.00
2023-04-16T14:58:08.858Z,12.00
2023-04-16T15:00:35.801Z,12.00
2023-04-16T15:03:02.638Z,12.00
2023-04-16T15:05:30.546Z,12.00
2023-04-16T15:07:57.401Z,12.00
2023-04-16T15:10:24.039Z,12.00
2023-04-16T15:12:50.831Z,12.00
2023-04-16T15:15:17.830Z,12.00
2023-04-16T15:17:44.679Z,12.00
2023-04-16T15:20:12.172Z,12.00
2023-04-16T15:22:38.792Z,12.00
2023-04-16T15:25:06.524Z,12.00
2023-04-16T15:27:33.170Z,12.00
2023-04-16T15:29:59.913Z,12.00
2023-04-16T15:32:26.699Z,12.00
2023-04-16T15:34:53.323Z,12.00
2023-04-16T15:37:20.033Z,12.00
2023-04-16T15:39:46.770Z,12.00
2023-04-16T15:42:13.437Z,11.90
2023-04-16T15:44:40.512Z,11.90
2023-04-16T15:47:08.502Z,12.00
2023-04-16T15:49:35.958Z,11.90
2023-04-16T15:52:02.871Z,11.90
2023-04-16T15:54:30.325Z,13.20
2023-04-16T15:56:58.647Z,12.00
2023-04-16T15:59:26.298Z,11.90
2023-04-16T16:01:53.072Z,11.90
2023-04-16T16:04:22.168Z,11.90
2023-04-16T16:06:52.290Z,11.90
2023-04-16T16:09:25.519Z,12.00
2023-04-16T16:11:54.198Z,12.00
2023-04-16T16:14:21.730Z,11.90
2023-04-16T16:16:48.376Z,11.90
2023-04-16T16:19:15.140Z,11.90
2023-04-16T16:21:41.765Z,11.90
2023-04-16T16:24:08.549Z,11.90
2023-04-16T16:26:35.245Z,11.90
2023-04-16T16:29:01.936Z,11.90
2023-04-16T16:31:28.593Z,11.90
2023-04-16T16:33:55.264Z,11.90
2023-04-16T16:36:21.880Z,11.90
2023-04-16T16:38:48.557Z,11.90
2023-04-16T16:41:15.253Z,11.90
2023-04-16T16:43:41.895Z,11.90
2023-04-16T16:46:09.838Z,11.90
2023-04-16T16:48:36.567Z,11.90
2023-04-16T16:51:03.221Z,11.90
2023-04-16T16:53:29.893Z,11.90
2023-04-16T16:55:56.493Z,11.90
2023-04-16T16:58:23.176Z,11.90
2023-04-16T17:00:49.945Z,11.90
2023-04-16T17:03:21.709Z,11.90
2023-04-16T17:05:52.248Z,11.90
2023-04-16T17:08:20.916Z,11.90
2023-04-16T17:10:48.216Z,11.90
2023-04-16T17:13:21.535Z,11.90
2023-04-16T17:15:48.136Z,11.90
2023-04-16T17:18:14.813Z,11.90
2023-04-16T17:20:41.645Z,11.90
2023-04-16T17:23:08.650Z,11.90
2023-04-16T17:25:35.632Z,11.90
2023-04-16T17:28:02.811Z,11.90
2023-04-16T17:30:31.482Z,11.90
2023-04-16T17:32:58.181Z,11.80
2023-04-16T17:35:25.376Z,11.80
2023-04-16T17:37:52.059Z,11.80
2023-04-16T17:40:18.868Z,11.80
2023-04-16T17:42:45.660Z,11.80
2023-04-16T17:45:12.592Z,11.80
2023-04-16T17:47:39.292Z,11.80
2023-04-16T17:50:07.159Z,11.80
2023-04-16T17:52:33.828Z,11.80
2023-04-16T17:55:01.545Z,11.80
2023-04-16T17:57:28.476Z,11.80
2023-04-16T17:59:55.397Z,11.80
2023-04-16T18:02:22.546Z,11.80
2023-04-16T18:04:49.682Z,11.80
2023-04-16T18:07:16.476Z,11.80
2023-04-16T18:09:43.151Z,11.80
2023-04-16T18:12:09.791Z,11.80
2023-04-16T18:14:38.643Z,11.80
2023-04-16T18:17:06.575Z,11.80
2023-04-16T18:19:33.559Z,11.80
2023-04-16T18:22:00.623Z,11.80
2023-04-16T18:24:27.409Z,11.80
2023-04-16T18:26:55.361Z,11.80
2023-04-16T18:29:25.104Z,11.80
2023-04-16T18:31:52.292Z,11.80
2023-04-16T18:34:19.290Z,11.80
2023-04-16T18:36:46.106Z,11.80
2023-04-16T18:39:12.830Z,11.70
2023-04-16T18:41:40.703Z,11.70
2023-04-16T18:44:07.479Z,11.70
2023-04-16T18:46:34.125Z,11.70
2023-04-16T18:49:00.870Z,11.80
2023-04-16T18:51:27.608Z,11.80
2023-04-16T18:53:54.293Z,11.80
2023-04-16T18:56:20.999Z,11.70
2023-04-16T18:58:47.938Z,11.70
2023-04-16T19:01:14.622Z,11.70
2023-04-16T19:03:41.373Z,11.70
2023-04-16T19:06:08.147Z,11.70
2023-04-16T19:08:34.791Z,11.80
2023-04-16T19:11:01.526Z,11.80
2023-04-16T19:13:30.227Z,11.80
2023-04-16T19:15:59.511Z,11.80
2023-04-16T19:18:26.545Z,11.80
2023-04-16T19:21:01.629Z,11.80
2023-04-16T19:23:28.722Z,11.80
2023-04-16T19:25:56.738Z,11.80
2023-04-16T19:28:24.304Z,11.80
2023-04-16T19:30:54.491Z,11.80
2023-04-16T19:33:21.412Z,11.80
2023-04-16T19:35:48.100Z,11.80
2023-04-16T19:38:14.807Z,11.80
2023-04-16T19:40:45.372Z,11.80
2023-04-16T19:43:12.370Z,11.80
2023-04-16T19:45:52.373Z,11.70
2023-04-16T19:48:21.936Z,11.80
2023-04-16T19:50:48.792Z,11.80
2023-04-16T19:53:17.215Z,11.80
2023-04-16T19:55:44.004Z,11.80
2023-04-16T19:58:10.728Z,11.60
2023-04-16T20:00:40.873Z,11.70
2023-04-16T20:03:07.833Z,11.80
2023-04-16T20:05:34.623Z,11.70
2023-04-16T20:08:01.346Z,11.80
2023-04-16T20:10:28.377Z,11.80
2023-04-16T20:12:55.623Z,11.70
2023-04-16T20:15:22.425Z,11.80
2023-04-16T20:17:49.630Z,11.70
2023-04-16T20:20:16.452Z,11.70
2023-04-16T20:22:43.604Z,11.80
2023-04-16T20:25:10.815Z,11.70
2023-04-16T20:27:37.589Z,11.80
2023-04-16T20:30:06.064Z,11.70
2023-04-16T20:32:32.871Z,11.70
2023-04-16T20:34:59.818Z,11.70
2023-04-16T20:40:08.742Z,11.20
2023-04-16T20:42:35.824Z,11.70
2023-04-16T20:45:02.807Z,11.70
2023-04-16T20:47:29.671Z,11.70
2023-04-16T20:49:56.492Z,11.70
2023-04-16T20:52:23.651Z,11.70
2023-04-16T20:54:53.049Z,11.70
2023-04-16T20:57:20.430Z,11.70
2023-04-16T20:59:47.992Z,11.70
2023-04-16T21:02:14.971Z,12.10
2023-04-16T21:04:41.857Z,11.70
2023-04-16T21:07:08.570Z,11.70
2023-04-16T21:09:35.705Z,11.70
2023-04-16T21:12:02.855Z,11.70
2023-04-16T21:14:29.550Z,11.60
2023-04-16T21:16:56.248Z,11.60
2023-04-16T21:19:22.906Z,11.60
2023-04-16T21:21:49.559Z,11.60
2023-04-16T21:24:16.302Z,11.60
2023-04-16T21:26:43.015Z,11.60
2023-04-16T21:29:09.781Z,11.70
2023-04-16T21:31:36.737Z,11.70
2023-04-16T21:34:03.410Z,11.70
2023-04-16T21:36:31.986Z,11.60
2023-04-16T21:38:58.688Z,11.70
2023-04-16T21:41:25.625Z,11.70
2023-04-16T21:43:52.315Z,11.70
2023-04-16T21:46:19.061Z,11.70
2023-04-16T21:48:45.780Z,11.60
2023-04-16T21:51:12.445Z,11.60
2023-04-16T21:53:39.216Z,11.60
2023-04-16T21:56:06.661Z,11.60
2023-04-16T21:58:33.393Z,11.60
2023-04-16T22:01:00.188Z,11.60
2023-04-16T22:03:28.164Z,11.60
2023-04-16T22:06:01.994Z,11.60
2023-04-16T22:08:29.570Z,11.60
2023-04-16T22:11:00.416Z,11.60
2023-04-16T22:13:27.673Z,11.60
2023-04-16T22:15:55.075Z,11.60
2023-04-16T22:18:24.295Z,11.60
2023-04-16T22:20:55.000Z,11.60
2023-04-16T22:23:25.194Z,11.60
2023-04-16T22:25:54.313Z,11.60
2023-04-16T22:28:21.141Z,11.60
2023-04-16T22:30:47.786Z,11.60
2023-04-16T22:33:14.538Z,11.60
2023-04-16T22:35:41.243Z,11.60
2023-04-16T22:38:08.023Z,11.60
2023-04-16T22:40:34.701Z,11.60
2023-04-16T22:43:01.352Z,11.60
2023-04-16T22:45:28.401Z,11.60
2023-04-16T22:47:55.108Z,11.60
2023-04-16T22:50:23.130Z,11.60
2023-04-16T22:52:49.823Z,11.60
2023-04-16T22:55:16.810Z,11.60
2023-04-16T22:57:43.489Z,11.60
2023-04-16T23:00:16.641Z,11.60
2023-04-16T23:02:43.938Z,11.60
2023-04-16T23:05:11.009Z,11.50
2023-04-16T23:07:37.839Z,11.50
2023-04-16T23:10:04.973Z,11.50
2023-04-16T23:12:32.391Z,11.60
2023-04-16T23:15:00.476Z,11.60
2023-04-16T23:17:28.047Z,11.60
2023-04-16T23:19:55.040Z,11.60
2023-04-16T23:22:21.682Z,11.60
2023-04-16T23:24:48.402Z,12.30
2023-04-16T23:27:15.557Z,13.70
2023-04-16T23:29:42.393Z,11.50
2023-04-16T23:32:09.075Z,11.50
2023-04-16T23:34:35.726Z,11.50
2023-04-16T23:37:02.353Z,11.50
2023-04-16T23:39:29.013Z,11.50
2023-04-16T23:41:57.115Z,11.50
2023-04-16T23:44:23.810Z,11.50
2023-04-16T23:46:50.539Z,11.50
2023-04-16T23:49:17.331Z,11.50
2023-04-16T23:51:45.652Z,11.50
2023-04-16T23:54:12.317Z,11.50
2023-04-16T23:56:38.957Z,11.50
2023-04-16T23:59:05.871Z,11.50
